createdAt,value
2022-09-26T00:03:39.550Z,99780.72
2022-09-26T00:09:01.460Z,99777.84
2022-09-26T00:14:28.994Z,99772.34
2022-09-26T00:19:50.763Z,99762.59
2022-09-26T00:25:12.597Z,99756.66
2022-09-26T00:30:36.979Z,99744.97
2022-09-26T00:35:58.872Z,99737.72
2022-09-26T00:41:20.663Z,99751.69
2022-09-26T00:46:47.718Z,99742.75
2022-09-26T00:52:20.612Z,99749.19
2022-09-26T00:57:46.888Z,99760.56
2022-09-26T01:03:08.678Z,99754.81
2022-09-26T01:08:39.473Z,99756.59
2022-09-26T01:14:01.641Z,99750.91
2022-09-26T01:19:36.808Z,99744.59
2022-09-26T01:25:49.846Z,99750.81
2022-09-26T01:31:22.412Z,99738.03
2022-09-26T01:36:51.785Z,99733.97
2022-09-26T01:42:40.452Z,99728.13
2022-09-26T01:48:13.321Z,99722.31
2022-09-26T01:53:39.687Z,99723.19
2022-09-26T01:59:08.190Z,99723.41
2022-09-26T02:04:37.958Z,99720.16
2022-09-26T02:10:07.773Z,99728.38
2022-09-26T02:15:32.744Z,99723.53
2022-09-26T02:21:24.332Z,99735.50
2022-09-26T02:26:46.354Z,99733.09
2022-09-26T02:32:14.020Z,99724.88
2022-09-26T02:37:35.923Z,99728.34
2022-09-26T02:43:11.705Z,99723.44
2022-09-26T02:48:48.617Z,99723.75
2022-09-26T02:54:28.787Z,99715.06
2022-09-26T03:00:20.161Z,99724.22
2022-09-26T03:05:45.782Z,99718.88
2022-09-26T03:11:09.668Z,99712.59
2022-09-26T03:16:37.418Z,99708.69
2022-09-26T03:21:59.631Z,99713.75
2022-09-26T03:27:21.787Z,99718.25
2022-09-26T03:32:43.742Z,99704.53
2022-09-26T03:38:05.515Z,99695.06
2022-09-26T03:43:27.369Z,99693.28
2022-09-26T03:48:49.181Z,99682.53
2022-09-26T03:54:12.452Z,99689.88
2022-09-26T03:59:34.259Z,99694.22
2022-09-26T04:04:55.989Z,99689.88
2022-09-26T04:10:17.793Z,99688.94
2022-09-26T04:15:39.559Z,99689.16
2022-09-26T04:21:09.841Z,99684.88
2022-09-26T04:26:31.933Z,99682.38
2022-09-26T04:31:53.961Z,99677.22
2022-09-26T04:37:15.758Z,99689.13
2022-09-26T04:42:37.636Z,99683.47
2022-09-26T04:47:59.405Z,99682.44
2022-09-26T04:53:21.178Z,99682.13
2022-09-26T04:58:43.981Z,99671.75
2022-09-26T05:04:05.891Z,99670.75
2022-09-26T05:09:27.667Z,99664.16
2022-09-26T05:14:49.423Z,99665.78
2022-09-26T05:20:11.209Z,99666.47
2022-09-26T05:25:39.118Z,99661.69
2022-09-26T05:31:00.895Z,99667.78
2022-09-26T05:36:23.521Z,99655.72
2022-09-26T05:41:45.303Z,99647.94
2022-09-26T05:47:07.371Z,99650.78
2022-09-26T05:52:29.165Z,99642.63
2022-09-26T05:57:52.031Z,99633.53
2022-09-26T06:03:14.579Z,99642.50
2022-09-26T06:08:38.271Z,99640.38
2022-09-26T06:14:00.045Z,99638.56
2022-09-26T06:19:23.073Z,99641.44
2022-09-26T06:24:45.312Z,99641.75
2022-09-26T06:30:10.527Z,99638.09
2022-09-26T06:35:32.333Z,99641.31
2022-09-26T06:40:54.224Z,99643.84
2022-09-26T06:46:16.120Z,99647.03
2022-09-26T06:51:38.081Z,99647.34
2022-09-26T06:56:59.838Z,99648.03
2022-09-26T07:02:21.718Z,99658.59
2022-09-26T07:07:43.795Z,99647.78
2022-09-26T07:13:07.351Z,99650.72
2022-09-26T07:18:29.170Z,99646.34
2022-09-26T07:23:50.937Z,99648.56
2022-09-26T07:29:12.839Z,99652.44
2022-09-26T07:34:34.641Z,99644.59
2022-09-26T07:40:01.276Z,99648.88
2022-09-26T07:45:29.451Z,99647.19
2022-09-26T07:50:57.091Z,99652.44
2022-09-26T07:56:18.839Z,99646.06
2022-09-26T08:01:40.636Z,99638.69
2022-09-26T08:07:02.484Z,99647.69
2022-09-26T08:12:25.034Z,99639.03
2022-09-26T08:17:46.785Z,99636.69
2022-09-26T08:23:08.548Z,99647.16
2022-09-26T08:28:30.439Z,99641.16
2022-09-26T08:33:52.209Z,99632.16
2022-09-26T08:39:14.079Z,99619.50
2022-09-26T08:44:41.684Z,99620.19
2022-09-26T08:50:23.317Z,99623.84
2022-09-26T08:55:48.180Z,99613.41
2022-09-26T09:01:24.949Z,99613.47
2022-09-26T09:06:48.741Z,99600.66
2022-09-26T09:12:32.093Z,99600.19
2022-09-26T09:18:14.111Z,99585.44
2022-09-26T09:24:09.740Z,99584.72
2022-09-26T09:29:49.746Z,99579.66
2022-09-26T09:35:18.728Z,99571.28
2022-09-26T09:40:46.690Z,99581.38
2022-09-26T09:46:18.269Z,99570.03
2022-09-26T09:51:55.232Z,99569.53
2022-09-26T09:57:52.499Z,99558.09
2022-09-26T10:03:28.125Z,99568.22
2022-09-26T10:08:50.178Z,99566.19
2022-09-26T10:14:16.546Z,99566.22
2022-09-26T10:19:41.374Z,99561.44
2022-09-26T10:25:16.872Z,99562.78
2022-09-26T10:30:47.878Z,99553.84
2022-09-26T10:36:17.778Z,99555.97
2022-09-26T10:41:42.061Z,99536.50
2022-09-26T10:47:06.388Z,99541.41
2022-09-26T10:52:34.581Z,99537.78
2022-09-26T10:58:01.145Z,99542.00
2022-09-26T11:03:39.660Z,99544.56
2022-09-26T11:09:03.528Z,99539.94
2022-09-26T11:14:28.638Z,99525.06
2022-09-26T11:19:59.720Z,99531.38
2022-09-26T11:25:29.196Z,99530.16
2022-09-26T11:30:56.221Z,99516.94
2022-09-26T11:36:44.279Z,99515.16
2022-09-26T11:42:23.262Z,99511.63
2022-09-26T11:48:03.236Z,99502.56
2022-09-26T11:53:42.707Z,99498.06
2022-09-26T11:59:19.494Z,99503.06
2022-09-26T12:05:27.440Z,99490.34
2022-09-26T12:10:58.684Z,99489.34
2022-09-26T12:16:35.843Z,99488.72
2022-09-26T12:22:42.969Z,99479.28
2022-09-26T12:28:15.807Z,99473.56
2022-09-26T12:33:49.689Z,99460.25
2022-09-26T12:39:42.236Z,99468.00
2022-09-26T12:45:35.776Z,99457.91
2022-09-26T12:51:22.197Z,99442.22
2022-09-26T12:57:21.214Z,99449.88
2022-09-26T13:02:57.948Z,99447.06
2022-09-26T13:08:35.052Z,99436.38
2022-09-26T13:14:28.913Z,99434.69
2022-09-26T13:20:11.339Z,99430.31
2022-09-26T13:26:09.067Z,99421.78
2022-09-26T13:31:39.234Z,99429.91
2022-09-26T13:37:03.609Z,99415.88
2022-09-26T13:42:45.158Z,99412.28
2022-09-26T13:48:39.438Z,99408.19
2022-09-26T13:54:17.789Z,99396.97
2022-09-26T13:59:52.567Z,99391.75
2022-09-26T14:05:20.372Z,99402.56
2022-09-26T14:10:53.168Z,99396.34
2022-09-26T14:16:26.946Z,99389.75
2022-09-26T14:22:16.928Z,99382.03
2022-09-26T14:27:38.714Z,99378.06
2022-09-26T14:33:05.228Z,99381.69
2022-09-26T14:38:26.906Z,99384.94
2022-09-26T14:43:51.179Z,99382.47
2022-09-26T14:49:21.501Z,99374.59
2022-09-26T14:54:43.548Z,99373.16
2022-09-26T15:00:39.662Z,99373.88
2022-09-26T15:06:04.175Z,99372.00
2022-09-26T15:11:32.009Z,99380.41
2022-09-26T15:16:55.701Z,99375.44
2022-09-26T15:22:21.009Z,99383.84
2022-09-26T15:27:46.096Z,99378.88
2022-09-26T15:33:16.509Z,99386.09
2022-09-26T15:38:38.375Z,99381.53
2022-09-26T15:44:01.123Z,99385.00
2022-09-26T15:49:23.209Z,99397.31
2022-09-26T15:54:45.179Z,99395.41
2022-09-26T16:00:09.732Z,99385.91
2022-09-26T16:05:33.421Z,99392.78
2022-09-26T16:10:58.342Z,99385.56
2022-09-26T16:16:46.402Z,99389.44
2022-09-26T16:22:26.605Z,99379.47
2022-09-26T16:27:57.151Z,99378.16
2022-09-26T16:33:33.834Z,99377.63
2022-09-26T16:39:01.566Z,99365.41
2022-09-26T16:44:33.623Z,99380.44
2022-09-26T16:49:56.971Z,99376.94
2022-09-26T16:55:19.354Z,99376.13
2022-09-26T17:00:41.165Z,99375.19
2022-09-26T17:06:02.919Z,99377.72
2022-09-26T17:11:25.341Z,99381.69
2022-09-26T17:16:50.592Z,99370.78
2022-09-26T17:22:15.319Z,99375.88
2022-09-26T17:27:37.107Z,99374.00
2022-09-26T17:32:59.360Z,99370.44
2022-09-26T17:38:21.376Z,99389.50
2022-09-26T17:43:43.624Z,99380.22
2022-09-26T17:49:12.037Z,99380.13
2022-09-26T17:54:36.781Z,99388.25
2022-09-26T18:00:02.292Z,99382.00
2022-09-26T18:05:26.675Z,99392.50
2022-09-26T18:10:52.462Z,99395.94
2022-09-26T18:16:14.835Z,99383.75
2022-09-26T18:21:36.876Z,99388.97
2022-09-26T18:26:59.603Z,99385.63
2022-09-26T18:32:27.700Z,99400.19
2022-09-26T18:37:54.069Z,99394.69
2022-09-26T18:43:22.513Z,99386.25
2022-09-26T18:48:45.925Z,99388.22
2022-09-26T18:54:16.297Z,99400.19
2022-09-26T18:59:38.501Z,99393.53
2022-09-26T19:05:02.667Z,99395.66
2022-09-26T19:10:24.556Z,99401.81
2022-09-26T19:15:46.468Z,99384.38
2022-09-26T19:21:17.725Z,99387.31
2022-09-26T19:26:42.731Z,99392.47
2022-09-26T19:32:06.463Z,99378.31
2022-09-26T19:37:28.619Z,99380.19
2022-09-26T19:42:51.483Z,99375.00
2022-09-26T19:48:19.488Z,99382.09
2022-09-26T19:53:41.316Z,99387.94
2022-09-26T19:59:03.199Z,99383.09
2022-09-26T20:04:25.072Z,99374.22
2022-09-26T20:09:47.287Z,99370.88
2022-09-26T20:15:09.347Z,99375.41
2022-09-26T20:20:31.377Z,99377.72
2022-09-26T20:25:54.653Z,99378.97
2022-09-26T20:31:27.596Z,99373.88
2022-09-26T20:36:50.931Z,99372.66
2022-09-26T20:42:17.135Z,99352.75
2022-09-26T20:47:38.932Z,99363.03
2022-09-26T20:53:00.776Z,99358.31
2022-09-26T20:58:22.937Z,99348.84
2022-09-26T21:03:53.482Z,99345.41
2022-09-26T21:09:19.697Z,99345.28
2022-09-26T21:14:41.964Z,99332.06
2022-09-26T21:20:04.096Z,99336.56
2022-09-26T21:25:29.192Z,99335.44
2022-09-26T21:30:51.127Z,99338.28
2022-09-26T21:36:13.009Z,99324.41
2022-09-26T21:41:36.042Z,99314.47
2022-09-26T21:46:57.908Z,99320.75
2022-09-26T21:52:27.613Z,99329.53
2022-09-26T21:57:51.866Z,99322.31
2022-09-26T22:03:13.824Z,99314.81
2022-09-26T22:08:37.457Z,99318.25
2022-09-26T22:13:59.273Z,99313.56
2022-09-26T22:19:21.369Z,99309.66
2022-09-26T22:24:43.167Z,99304.78
2022-09-26T22:30:07.696Z,99304.72
2022-09-26T22:35:29.465Z,99303.13
2022-09-26T22:40:59.385Z,99297.00
2022-09-26T22:46:21.386Z,99294.53
2022-09-26T22:51:43.216Z,99288.84
2022-09-26T22:57:05.076Z,99277.94
2022-09-26T23:02:26.959Z,99287.84
2022-09-26T23:07:52.405Z,99281.44
2022-09-26T23:13:14.209Z,99278.34
2022-09-26T23:18:37.807Z,99266.41
2022-09-26T23:23:59.610Z,99270.41
2022-09-26T23:29:21.384Z,99271.81
2022-09-26T23:34:43.151Z,99266.38
2022-09-26T23:40:05.410Z,99266.97
2022-09-26T23:45:27.200Z,99253.22
2022-09-26T23:50:49.063Z,99251.72
2022-09-26T23:56:12.859Z,99247.13
